Don's Testing Zone


Current Conditions
weather data
source:

National Weather Service
Clear Little Rock, AR
Clear, 70°F
Tuesday, September 26, 2017 11:53 PM CDT
Temperature: 70°F/21°C
Humidity: 88%
Barometer: 29.94in/1013.6mb Barometer Steady
Wind: CALM at 0mph/0kmh
View other cities:
Searcy | Little Rock | Hot Springs | Russellville | More...
Astronomical Conditions (Clear Sky Clock)
Searcy Clear Sky Clock
    

Radar Images

NWS
    Wx Underground

NWS METAR weather data

ADDS - METARS form results





Aviation Digital Data Service (ADDS) Output produced by METARs form (0517 UTC 26 September 2017) found at http://www.aviationweather.gov/adds/metars/ 

KLIT 260453Z 00000KT 10SM CLR 21/19 A2994 RMK AO2 SLP136 T02110194

KLIT 260353Z 00000KT 10SM CLR 23/20 A2993 RMK AO2 SLP135 T02280200

KLIT 260253Z 00000KT 10SM FEW250 23/21 A2992 RMK AO2 SLP132 T02330206 51014

KLIT 260153Z 00000KT 10SM SCT250 25/20 A2992 RMK AO2 SLP131 T02500200

KLIT 260053Z 12003KT 10SM FEW020 SCT250 26/20 A2990 RMK AO2 SLP123 FU FEW020SW-W T02560200

KLIT 252353Z 16003KT 10SM SCT020 SCT250 28/19 A2988 RMK AO2 SLP119 FU SCT020ALQDS T02780189 10317 20278 55003

KLIT 252253Z 15008KT 10SM FEW050 30/18 A2988 RMK AO2 SLP117 T03000178

KLIT 252153Z 16009KT 10SM FEW055TCU SCT120 31/18 A2988 RMK AO2 SLP118 TCU SW TCUDSNT W T03110178

KLIT 252053Z 16009KT 10SM SCT050TCU SCT120 31/18 A2989 RMK AO2 SLP121 TCU NET03110178 56022

KLIT 251953Z 17007KT 10SM BKN050 BKN120 29/18 A2991 RMK AO2 SLP128 T02940183

KLIT 251853Z 17009KT 10SM BKN050 31/19 A2993 RMK AO2 SLP133 T03110194

KLIT 251753Z 14010KT 10SM SCT040 31/19 A2996 RMK AO2 SLP143 T03060194 1030620189 58013

KLIT 251653Z 18006KT 10SM SCT040 29/20 A2998 RMK AO2 SLP152 T02940200

KLIT 251553Z VRB05KT 7SM CLR 28/21 A2999 RMK AO2 SLP155 T02780211

KLIT 251453Z 10004KT 7SM CLR 26/21 A2999 RMK AO2 SLP156 T02560211 53003

KLIT 251353Z 09003KT 7SM CLR 23/21 A2999 RMK AO2 SLP155 T02280211

KLIT 251253Z 04003KT 7SM CLR 21/21 A2998 RMK AO2 SLP154 T02110206

KLIT 251153Z 06004KT 7SM MIFG FEW100 19/19 A2998 RMK AO2 SLP153 T01890189 1022220189 53009

KLIT 251053Z 06003KT 10SM CLR 19/19 A2996 RMK AO2 SLP145 T01940194

KLIT 250953Z 05004KT 10SM CLR 20/20 A2996 RMK AO2 SLP143 T02000200

KLIT 250853Z 00000KT 10SM CLR 20/20 A2996 RMK AO2 SLP143 T02000200 51001

KLIT 250753Z 00000KT 10SM CLR 21/21 A2995 RMK AO2 SLP142 T02110206

KLIT 250653Z 05003KT 10SM CLR 21/21 A2996 RMK AO2 SLP143 T02110206

KLIT 250553Z 00000KT 10SM CLR 22/21 A2995 RMK AO2 SLP142 T02170206 10289 20217403280206 50000